Latest Weather Observations for Willis Island

IDQ60801

Issued at 10:05 pm EST Friday 28 November 2014 (issued every 30 minutes, with the page automatically refreshed every 10 minutes)

About weather observations | Map of weather stations | Latest weather observations for QLD | Other Formats
Station Details ID: 200283 Name: WILLIS ISLAND Lat: -16.29 Lon: 149.97 Height: 9.29 m
Data from the previous 72 hours. | See also: Recent months at Willis Island
Date/Time
EST
Temp
°C
App
Temp
°C
Dew
Point
Rel
Hum
%
Delta-T
°C
Wind Press
QNH
hPa
Press
MSL
hPa
Rain
since 9 am
mm
Dir
 
Spd
km/h
Gust
km/h
Spd
kts
Gust
kts
28/10:00pm 26.4 25.1 21.3 73 3.4 ESE 30 32 16 17 1011.2 - 0.0
28/09:30pm 26.5 25.1 20.4 69 4.0 ESE 28 32 15 17 1011.2 - 0.0
28/09:00pm 26.4 25.1 20.6 70 3.8 ESE 28 32 15 17 1011.0 1011.0 0.0
28/08:30pm 26.5 25.0 19.5 65 4.5 ESE 26 32 14 17 1010.9 - 0.0
28/08:00pm 26.5 24.4 20.6 70 3.9 ESE 32 37 17 20 1010.7 - 0.0
28/07:30pm 26.7 24.7 20.8 70 3.9 SE 32 35 17 19 1010.5 - 0.0
28/07:00pm 26.7 25.6 21.0 71 3.8 SSE 28 32 15 17 1010.3 - 0.0
28/06:30pm 26.6 24.4 20.3 68 4.1 SE 32 35 17 19 1010.3 - 0.0
28/06:00pm 26.9 25.3 20.7 69 4.1 SSE 30 35 16 19 1010.0 1010.0 0.0
28/05:30pm 27.3 25.4 20.1 64 4.7 SE 30 37 16 20 1009.8 - 0.0
28/05:00pm 27.4 25.6 20.4 65 4.6 SE 30 33 16 18 1009.6 - 0.0
28/04:30pm 28.6 27.3 20.6 62 5.3 SSE 28 32 15 17 1009.5 - 0.0
28/04:00pm 28.3 26.4 19.4 58 5.8 SSE 28 33 15 18 1009.5 - 0.0
28/03:30pm 28.8 27.1 19.8 58 5.9 SSE 28 32 15 17 1009.4 - 0.0
28/03:00pm 28.8 27.2 20.1 59 5.7 SE 28 33 15 18 1009.4 1009.4 0.0
28/02:30pm 29.6 28.7 20.7 58 5.9 SE 26 32 14 17 1009.5 - 0.0
28/02:00pm 30.0 29.8 21.2 59 5.9 SE 24 30 13 16 1009.8 - 0.0
28/01:30pm 29.8 29.1 20.3 56 6.3 SE 24 30 13 16 1010.0 - 0.0
28/01:00pm 29.8 29.2 20.6 57 6.1 SE 24 30 13 16 1010.3 - 0.0
28/12:30pm 29.8 28.7 20.3 56 6.3 SE 26 30 14 16 1010.5 - 0.0
28/12:00pm 29.7 28.6 20.3 57 6.2 SE 26 30 14 16 1010.6 1010.6 0.0
28/11:30am 29.7 28.1 20.1 56 6.3 ESE 28 32 15 17 1010.8 - 0.0
28/11:00am 29.7 28.3 20.5 57 6.1 SE 28 33 15 18 1011.1 - 0.0
28/10:30am 29.7 28.4 20.7 58 6.0 SE 28 33 15 18 1011.2 - 0.0
28/10:00am 29.4 27.8 20.7 59 5.8 SE 30 35 16 19 1011.4 - 0.0
28/09:30am 29.7 28.1 20.7 58 6.0 SE 30 35 16 19 1011.4 - 0.0
28/09:00am 28.8 26.2 19.6 57 6.0 SE 32 39 17 21 1011.5 1011.5 0.0
28/08:30am 28.7 26.5 20.4 60 5.5 SE 32 35 17 19 1011.4 - 0.0
28/08:00am 28.2 25.8 19.9 60 5.4 SE 32 37 17 20 1011.1 - 0.0
28/07:30am 27.9 25.8 20.6 64 4.8 ESE 32 35 17 19 1011.1 - 0.0
28/07:00am 27.4 25.3 20.9 67 4.3 ESE 33 37 18 20 1010.9 - 0.0
28/06:30am 27.1 25.0 20.9 69 4.1 E 33 37 18 20 1010.7 - 0.0
28/06:00am 26.0 24.3 21.3 75 3.1 E 32 35 17 19 1010.6 1010.6 0.0
28/05:50am 25.8 23.7 20.5 72 3.5 E 32 33 17 18 1010.6 - 0.0
28/05:30am 24.9 21.8 20.5 76 2.9 SE 37 46 20 25 1010.6 - 0.0
28/05:20am 25.3 22.6 22.0 82 2.2 SE 39 44 21 24 1010.6 - 0.0
28/05:00am 24.4 24.9 20.1 77 2.8 ESE 17 19 9 10 1010.4 - 0.0
28/04:30am 25.1 22.3 20.3 74 3.1 ESE 35 56 19 30 1010.2 - 0.0
28/04:28am 25.7 23.7 20.7 74 3.3 ESE 32 56 17 30 1010.2 - 0.0
28/04:00am 25.0 20.8 19.7 72 3.4 ESE 41 46 22 25 1010.0 - 0.0
28/03:30am 25.5 21.4 21.1 76 2.9 ESE 44 52 24 28 1009.8 - 0.0
28/03:00am 25.6 23.1 20.2 72 3.5 ESE 33 39 18 21 1009.6 1009.6 0.0
28/02:30am 25.6 21.2 20.2 72 3.5 ESE 43 50 23 27 1009.8 - 0.0
28/02:00am 25.8 22.6 21.8 78 2.7 ESE 41 56 22 30 1009.8 - 0.0
28/01:59am 26.3 23.2 21.2 73 3.4 ESE 39 54 21 29 1009.9 - 0.0
28/01:30am 26.3 25.6 21.8 76 3.0 ESE 28 35 15 19 1010.2 - 0.0
28/01:00am 26.3 24.8 22.0 77 2.9 SE 33 39 18 21 1010.3 - 0.0
28/12:30am 26.5 24.7 21.2 72 3.5 ESE 32 39 17 21 1010.4 - 0.0
28/12:00am 26.4 24.4 21.1 72 3.5 E 33 39 18 21 1010.5 1010.5 0.0
 
Date/Time
EST
Temp
°C
App
Temp
°C
Dew
Point
Rel
Hum
%
Delta-T
°C
Wind Press
QNH
hPa
Press
MSL
hPa
Rain
since 9 am
mm
Dir
 
Spd
km/h
Gust
km/h
Spd
kts
Gust
kts
27/11:30pm 26.5 25.0 21.7 75 3.2 ESE 32 35 17 19 1010.8 - 0.0
27/11:00pm 26.7 25.2 22.1 76 3.1 ESE 33 39 18 21 1010.9 - 0.0
27/10:30pm 26.7 24.7 21.9 75 3.2 E 35 41 19 22 1011.2 - 0.0
27/10:00pm 26.7 25.5 22.2 76 3.0 ESE 32 35 17 19 1011.4 - 0.0
27/09:30pm 26.6 26.0 22.0 76 3.1 ESE 28 33 15 18 1011.4 - 0.0
27/09:00pm 26.6 25.7 22.1 76 3.0 ESE 30 35 16 19 1011.3 1011.3 0.0
27/08:30pm 26.7 25.8 22.1 76 3.1 ESE 30 33 16 18 1011.1 - 0.0
27/08:00pm 26.7 25.2 22.1 76 3.1 ESE 33 39 18 21 1010.8 - 0.0
27/07:30pm 26.7 25.6 22.4 77 2.9 ESE 32 39 17 21 1010.5 - 0.0
27/07:00pm 26.8 25.0 21.6 73 3.5 ESE 33 37 18 20 1010.2 - 0.0
27/06:30pm 26.9 25.3 21.5 72 3.6 SE 32 37 17 20 1010.0 - 0.0
27/06:00pm 27.1 25.2 20.9 69 4.1 SE 32 35 17 19 1009.9 1009.9 0.0
27/05:30pm 27.0 26.4 22.7 77 2.9 ESE 30 35 16 19 1009.6 - 0.0
27/05:00pm 27.6 26.9 21.8 70 3.9 SE 28 33 15 18 1009.4 - 0.0
27/04:30pm 27.5 26.9 22.0 72 3.7 SE 28 33 15 18 1009.3 - 0.0
27/04:00pm 28.3 28.0 21.9 68 4.3 SSE 26 30 14 16 1009.0 - 0.0
27/03:30pm 28.9 28.4 22.1 66 4.6 SE 28 32 15 17 1009.0 - 0.0
27/03:00pm 29.4 29.2 22.0 64 5.0 SE 26 32 14 17 1009.0 1009.0 0.0
27/02:30pm 29.4 29.5 21.2 61 5.5 SE 22 26 12 14 1009.1 - 0.0
27/02:00pm 30.0 31.0 21.7 61 5.6 SE 19 26 10 14 1009.4 - 0.0
27/01:30pm 29.5 29.1 21.6 62 5.3 ESE 26 32 14 17 1009.9 - 0.0
27/01:00pm 30.2 29.5 21.8 60 5.7 ESE 28 32 15 17 1010.1 - 0.0
27/12:30pm 30.2 29.5 21.1 58 6.1 ESE 26 30 14 16 1010.3 - 0.0
27/12:00pm 29.5 29.1 21.6 62 5.3 ESE 26 30 14 16 1010.8 1010.8 0.0
27/11:30am 29.4 29.4 21.7 63 5.2 ESE 24 30 13 16 1011.1 - 0.0
27/11:00am 29.4 28.8 22.0 64 5.0 SE 28 32 15 17 1011.4 - 0.0
27/10:30am 29.8 28.6 20.1 56 6.4 ESE 26 30 14 16 1011.6 - 0.0
27/10:00am 29.6 28.8 20.9 59 5.8 ESE 26 30 14 16 1011.7 - 0.0
27/09:30am 29.4 28.8 21.2 61 5.5 ESE 26 30 14 16 1011.9 - 0.0
27/09:00am 29.3 27.7 21.5 63 5.2 ESE 32 35 17 19 1012.1 1012.1 0.0
27/08:30am 28.5 27.2 22.1 68 4.3 ESE 32 35 17 19 1012.0 - 0.0
27/08:00am 28.2 26.9 21.3 66 4.6 ESE 30 35 16 19 1011.9 - 0.0
27/07:30am 27.6 26.2 21.1 67 4.3 ESE 30 33 16 18 1011.8 - 0.0
27/07:00am 27.5 26.4 21.0 67 4.3 ESE 28 32 15 17 1011.6 - 0.0
27/06:30am 27.0 26.5 21.4 71 3.7 ESE 26 32 14 17 1011.4 - 0.0
27/06:00am 26.7 25.8 21.4 72 3.5 ESE 28 30 15 16 1011.2 1011.2 0.0
27/05:30am 26.3 25.5 21.6 75 3.1 ESE 28 32 15 17 1010.7 - 0.0
27/05:00am 26.2 25.2 21.2 74 3.3 E 28 33 15 18 1010.3 - 0.0
27/04:30am 26.1 25.5 21.3 75 3.2 ESE 26 30 14 16 1010.1 - 0.0
27/04:00am 26.2 25.4 20.9 72 3.5 E 26 32 14 17 1010.0 - 0.0
27/03:30am 26.2 24.3 20.9 72 3.5 ESE 32 37 17 20 1009.8 - 0.0
27/03:00am 26.3 24.9 21.2 73 3.4 E 30 37 16 20 1009.9 1009.9 0.0
27/02:30am 26.4 24.3 20.5 70 3.9 E 32 37 17 20 1010.1 - 0.0
27/02:00am 26.4 23.8 19.9 67 4.2 E 33 39 18 21 1010.0 - 0.0
27/01:30am 26.5 23.3 19.5 65 4.5 E 35 43 19 23 1010.1 - 0.0
27/01:00am 26.5 24.1 20.4 69 4.0 E 33 39 18 21 1010.3 - 0.0
27/12:30am 26.5 23.0 19.5 65 4.5 ESE 37 46 20 25 1010.6 - 0.0
27/12:00am 26.6 24.3 21.2 72 3.6 E 35 41 19 22 1011.2 1011.2 0.0
 
Date/Time
EST
Temp
°C
App
Temp
°C
Dew
Point
Rel
Hum
%
Delta-T
°C
Wind Press
QNH
hPa
Press
MSL
hPa
Rain
since 9 am
mm
Dir
 
Spd
km/h
Gust
km/h
Spd
kts
Gust
kts
26/11:30pm 26.6 22.8 19.8 66 4.4 ESE 39 44 21 24 1011.4 - 0.0
26/11:00pm 26.7 23.5 20.3 68 4.2 ESE 37 43 20 23 1011.8 - 0.0
26/10:30pm 26.8 23.3 20.4 68 4.2 ESE 39 44 21 24 1011.8 - 0.0
26/10:00pm 26.8 24.4 21.1 71 3.8 ESE 35 41 19 22 1012.1 - 0.0
26/09:30pm 26.8 24.6 20.7 69 4.0 ESE 33 41 18 22 1012.1 - 0.0
26/09:00pm 26.8 24.4 20.4 68 4.2 ESE 33 41 18 22 1011.8 1011.8 0.0
26/08:30pm 26.9 24.2 20.5 68 4.2 ESE 35 43 19 23 1011.5 - 0.0
26/08:00pm 27.0 24.7 20.6 68 4.2 ESE 33 37 18 20 1011.5 - 0.0
26/07:30pm 27.0 25.1 21.0 69 4.0 E 32 37 17 20 1011.4 - 0.0
26/07:00pm 27.0 25.1 21.0 69 4.0 ESE 32 35 17 19 1011.3 - 0.0
26/06:30pm 27.0 24.9 20.6 68 4.2 E 32 39 17 21 1010.9 - 0.0
26/06:00pm 27.0 24.9 20.6 68 4.2 E 32 37 17 20 1010.3 1010.3 0.0
26/05:30pm 27.3 25.4 21.0 68 4.2 E 32 37 17 20 1010.0 - 0.0
26/05:00pm 27.7 25.2 20.2 63 4.9 ESE 33 39 18 21 1009.7 - 0.0
26/04:30pm 28.0 26.1 21.4 67 4.4 ESE 33 39 18 21 1009.4 - 0.0
26/04:00pm 28.4 26.2 20.7 63 5.1 ESE 33 41 18 22 1009.5 - 0.0
26/03:30pm 28.6 26.5 20.9 63 5.1 E 33 39 18 21 1009.6 - 0.0
26/03:00pm 28.7 27.0 21.7 66 4.7 E 33 41 18 22 1009.7 1009.7 0.0
26/02:30pm 28.6 27.0 22.6 70 4.1 E 35 39 19 21 1009.7 - 0.0
26/02:00pm 28.5 27.5 22.6 70 4.0 E 32 37 17 20 1009.9 - 0.0
26/01:30pm 28.9 27.3 22.6 69 4.3 E 35 39 19 21 1010.1 - 0.0
26/01:00pm 29.0 26.6 21.9 65 4.8 E 37 43 20 23 1010.3 - 0.0
26/12:30pm 28.9 26.9 21.9 66 4.7 E 35 41 19 22 1010.7 - 0.0
26/12:00pm 29.6 27.7 22.7 66 4.7 E 37 43 20 23 1011.0 1011.0 0.0
26/11:30am 29.3 27.6 22.5 67 4.6 E 35 41 19 22 1011.4 - 0.0
26/11:00am 28.8 27.2 22.6 69 4.2 E 35 41 19 22 1011.7 - 0.0
26/10:30am 29.2 28.0 22.6 67 4.5 E 33 39 18 21 1011.7 - 0.0
26/10:00am 28.9 27.4 22.7 69 4.2 E 35 41 19 22 1011.6 - 0.0
26/09:30am 29.0 28.3 23.5 72 3.8 E 33 41 18 22 1011.6 - 0.0
26/09:00am 29.4 29.2 23.4 70 4.1 E 30 35 16 19 1011.5 1011.5 0.0
26/08:30am 28.4 27.5 22.2 69 4.2 E 30 35 16 19 1011.5 - 0.0
26/08:00am 28.4 27.5 22.8 71 3.8 E 32 35 17 19 1011.3 - 0.0
26/07:30am 27.9 27.4 22.9 74 3.4 E 30 33 16 18 1011.2 - 0.0
26/07:00am 27.3 26.8 22.9 77 3.0 E 30 33 16 18 1011.0 - 0.0
26/06:30am 27.0 26.9 22.9 78 2.8 E 28 32 15 17 1010.9 - 0.0
26/06:00am 26.8 26.6 22.8 79 2.7 E 28 32 15 17 1010.6 1010.6 0.0
26/05:30am 26.5 26.1 22.3 78 2.8 E 28 32 15 17 1010.1 - 0.0
26/05:00am 26.4 26.1 22.6 79 2.6 E 28 33 15 18 1009.9 - 0.0
26/04:30am 26.4 26.1 22.6 79 2.6 E 28 32 15 17 1009.7 - 0.0
26/04:00am 26.4 26.2 22.7 80 2.5 E 28 30 15 16 1009.5 - 0.0
26/03:30am 26.4 26.8 22.4 78 2.7 E 24 28 13 15 1009.4 - 0.0
26/03:00am 26.4 26.9 22.6 79 2.6 E 24 28 13 15 1009.4 1009.4 0.0
26/02:30am 26.5 27.0 22.7 79 2.6 E 24 26 13 14 1009.4 - 0.0
26/02:00am 26.5 26.3 22.0 76 3.0 E 26 30 14 16 1009.4 - 0.0
26/01:30am 26.5 26.1 22.3 78 2.8 E 28 32 15 17 1009.6 - 0.0
26/01:00am 26.7 26.9 22.7 79 2.7 E 26 32 14 17 1010.0 - 0.0
26/12:30am 26.7 27.0 22.2 76 3.0 E 24 28 13 15 1010.5 - 0.0
26/12:00am 26.7 27.2 22.7 79 2.7 E 24 28 13 15 1011.0 1011.0 0.0
 
Date/Time
EST
Temp
°C
App
Temp
°C
Dew
Point
Rel
Hum
%
Delta-T
°C
Wind Press
QNH
hPa
Press
MSL
hPa
Rain
since 9 am
mm
Dir
 
Spd
km/h
Gust
km/h
Spd
kts
Gust
kts
25/11:30pm 26.8 26.5 22.5 77 2.9 E 28 33 15 18 1011.3 - 0.0
25/11:00pm 26.9 26.4 22.1 75 3.2 E 28 32 15 17 1011.5 - 0.0
25/10:30pm 27.0 27.1 22.6 77 3.0 E 26 30 14 16 1011.8 - 0.0

Other Formats:

Comma delimited format used in spreadsheet applications
http://www.bom.gov.au/fwo/IDQ60801/IDQ60801.94299.axf

JavaScript Object Notation format (JSON) in row-major order
http://www.bom.gov.au/fwo/IDQ60801/IDQ60801.94299.json